Time;durP1;ratioP1;P1;durP2;ratioP2;P2;SDS_P1;SDS_P2;PMS_P1;PMS_P2;Temp;Humidity;BMP_temperature;BMP_pressure;BME280_temperature;BME280_humidity;BME280_pressure;Samples;Min_cycle;Max_cycle;Signal;HPM_P1;HPM_P2
2022/06/22 00:01:31;;;;;;;18.63;7.82;;;;;;;;;;5052297;28;20053;-73
2022/06/22 00:04:51;;;;;;;12.40;8.57;;;;;;;;;;5052113;28;20041;-73
2022/06/22 00:07:58;;;;;;;10.68;7.78;;;;;;;;;;5052249;28;20045;-72
2022/06/22 00:11:08;;;;;;;13.00;8.00;;;;;;;;;;5051954;28;20037;-72
2022/06/22 00:14:25;;;;;;;16.15;7.88;;;;;;;;;;5052114;28;20033;-72
2022/06/22 00:17:37;;;;;;;17.88;8.65;;;;;;;;;;5050785;28;20041;-72
2022/06/22 00:20:48;;;;;;;12.82;7.50;;;;;;;;;;5050860;28;20397;-72
2022/06/22 00:23:55;;;;;;;13.68;7.85;;;;;;;;;;5051048;28;20041;-72
2022/06/22 00:26:58;;;;;;;11.63;8.30;;;;;;;;;;5051135;28;20529;-72
2022/06/22 00:30:15;;;;;;;16.30;7.97;;;;;;;;;;5050651;28;20033;-72
2022/06/22 00:33:23;;;;;;;13.50;7.68;;;;;;;;;;5051598;28;20370;-72
2022/06/22 00:36:29;;;;;;;11.38;7.88;;;;;;;;;;5051665;28;20385;-72
2022/06/22 00:39:38;;;;;;;14.35;7.53;;;;;;;;;;5051378;28;20040;-72
2022/06/22 00:42:44;;;;;;;14.00;7.72;;;;;;;;;;5051263;28;20041;-72
2022/06/22 00:45:49;;;;;;;9.98;7.57;;;;;;;;;;5051196;28;20045;-72
2022/06/22 00:48:55;;;;;;;13.20;7.93;;;;;;;;;;5051190;28;20037;-73
2022/06/22 00:52:00;;;;;;;10.75;7.55;;;;;;;;;;5050290;28;20045;-72
2022/06/22 00:55:15;;;;;;;11.30;7.45;;;;;;;;;;5051380;28;20191;-72
2022/06/22 00:58:26;;;;;;;16.20;7.22;;;;;;;;;;5051001;28;20037;-73
2022/06/22 01:01:30;;;;;;;10.25;6.80;;;;;;;;;;5051000;28;20044;-72
2022/06/22 01:04:40;;;;;;;10.80;7.28;;;;;;;;;;5050975;28;20033;-72
2022/06/22 01:07:54;;;;;;;11.63;7.70;;;;;;;;;;5051218;28;20048;-72
2022/06/22 01:12:16;;;;;;;10.88;7.78;;;;;;;;;;5051082;28;20033;-72
2022/06/22 01:14:34;;;;;;;18.33;9.32;;;;;;;;;;5050826;28;20045;-72
2022/06/22 01:17:48;;;;;;;18.80;7.72;;;;;;;;;;5050789;28;20433;-72
2022/06/22 01:21:02;;;;;;;16.33;8.02;;;;;;;;;;5051027;28;20037;-72
2022/06/22 01:24:32;;;;;;;11.05;7.50;;;;;;;;;;5050992;28;20390;-73
2022/06/22 01:27:39;;;;;;;17.50;8.98;;;;;;;;;;5049691;28;20041;-73
2022/06/22 01:30:47;;;;;;;10.60;7.22;;;;;;;;;;5051025;28;20033;-73
2022/06/22 01:33:53;;;;;;;14.95;7.60;;;;;;;;;;5050838;28;20029;-73
2022/06/22 01:37:01;;;;;;;19.60;8.32;;;;;;;;;;5050843;28;20037;-73
2022/06/22 01:40:05;;;;;;;12.15;7.63;;;;;;;;;;5050616;28;20037;-73
2022/06/22 01:43:15;;;;;;;12.82;7.60;;;;;;;;;;5050599;28;20033;-73
2022/06/22 01:46:20;;;;;;;12.45;8.40;;;;;;;;;;5050435;28;20041;-73
2022/06/22 01:49:36;;;;;;;14.88;8.40;;;;;;;;;;5050809;28;20037;-73
2022/06/22 01:52:48;;;;;;;12.20;8.80;;;;;;;;;;5050751;28;20036;-73
2022/06/22 01:55:59;;;;;;;14.82;8.65;;;;;;;;;;5050480;28;20041;-73
2022/06/22 01:59:21;;;;;;;22.60;9.57;;;;;;;;;;5049504;28;20506;-73
2022/06/22 02:02:32;;;;;;;16.70;9.57;;;;;;;;;;5050317;28;20040;-73
2022/06/22 02:05:40;;;;;;;17.15;9.07;;;;;;;;;;5049607;28;20049;-73
2022/06/22 02:08:44;;;;;;;10.60;7.75;;;;;;;;;;5050279;28;20048;-73
2022/06/22 02:12:18;;;;;;;16.85;8.82;;;;;;;;;;5050667;28;20033;-73
2022/06/22 02:15:22;;;;;;;17.40;9.63;;;;;;;;;;5054019;28;20037;-73
2022/06/22 02:18:33;;;;;;;14.50;8.23;;;;;;;;;;5054059;28;20488;-73
2022/06/22 02:21:37;;;;;;;;;;;;;;;;;;5055115;28;20033;-73
2022/06/22 02:24:44;;;;;;;18.08;7.95;;;;;;;;;;5053699;28;19915;-72
2022/06/22 02:27:48;;;;;;;13.35;7.30;;;;;;;;;;5053716;28;20049;-73
2022/06/22 02:30:52;;;;;;;11.88;6.80;;;;;;;;;;5053177;28;20481;-73
2022/06/22 02:33:57;;;;;;;11.13;7.18;;;;;;;;;;5053193;28;20432;-73
2022/06/22 02:37:04;;;;;;;11.27;6.10;;;;;;;;;;5053655;28;20036;-73
2022/06/22 02:40:15;;;;;;;8.45;5.47;;;;;;;;;;5052973;28;20284;-73
2022/06/22 02:46:48;;;;;;;14.90;7.85;;;;;;;;;;5053363;28;20037;-73
2022/06/22 02:49:57;;;;;;;14.23;7.32;;;;;;;;;;5053567;28;20029;-73
2022/06/22 02:53:05;;;;;;;16.00;7.65;;;;;;;;;;5052639;28;20138;-72
2022/06/22 02:56:23;;;;;;;20.30;7.95;;;;;;;;;;5053430;28;20037;-73
2022/06/22 02:59:27;;;;;;;15.25;8.27;;;;;;;;;;5052171;28;20029;-72
2022/06/22 03:02:32;;;;;;;17.80;8.18;;;;;;;;;;5053303;28;20041;-73
2022/06/22 03:05:38;;;;;;;19.48;8.70;;;;;;;;;;5052247;28;20033;-73
2022/06/22 03:08:42;;;;;;;13.20;7.97;;;;;;;;;;5053254;28;20049;-72
2022/06/22 03:11:49;;;;;;;12.57;8.30;;;;;;;;;;5052453;28;20045;-73
2022/06/22 03:14:59;;;;;;;13.43;8.25;;;;;;;;;;5052987;28;20191;-73
2022/06/22 03:18:04;;;;;;;14.32;8.50;;;;;;;;;;5052927;28;20041;-73
2022/06/22 03:21:11;;;;;;;12.13;8.77;;;;;;;;;;5053357;28;20422;-72
2022/06/22 03:24:38;;;;;;;11.38;8.45;;;;;;;;;;5052727;28;20040;-72
2022/06/22 03:27:47;;;;;;;13.13;8.13;;;;;;;;;;5051680;28;20052;-73
2022/06/22 03:30:54;;;;;;;18.55;8.77;;;;;;;;;;5052919;28;20045;-72
2022/06/22 03:34:01;;;;;;;14.82;8.50;;;;;;;;;;5052726;28;20044;-73
2022/06/22 03:37:08;;;;;;;16.33;9.40;;;;;;;;;;5052811;28;20037;-73
2022/06/22 03:40:14;;;;;;;14.43;8.57;;;;;;;;;;5052309;28;20299;-72
2022/06/22 03:43:36;;;;;;;19.75;8.65;;;;;;;;;;5052748;28;20029;-73
2022/06/22 03:46:46;;;;;;;13.15;8.52;;;;;;;;;;5051573;28;20049;-72
2022/06/22 03:49:57;;;;;;;13.95;8.38;;;;;;;;;;5052319;28;20037;-73
2022/06/22 03:53:07;;;;;;;16.75;7.82;;;;;;;;;;5040131;28;20045;-73
2022/06/22 03:56:14;;;;;;;15.55;8.30;;;;;;;;;;5052255;28;20037;-73
2022/06/22 03:59:19;;;;;;;12.93;7.97;;;;;;;;;;5052149;28;20033;-73
2022/06/22 04:02:24;;;;;;;18.33;8.77;;;;;;;;;;5052414;28;20045;-73
2022/06/22 04:05:32;;;;;;;20.50;11.77;;;;;;;;;;5052257;28;20036;-73
2022/06/22 04:08:38;;;;;;;76.05;45.65;;;;;;;;;;5051263;28;20044;-72
2022/06/22 04:11:53;;;;;;;55.78;32.28;;;;;;;;;;5052005;28;20044;-72
2022/06/22 04:15:03;;;;;;;37.75;22.73;;;;;;;;;;5051566;28;20052;-72
2022/06/22 04:18:34;;;;;;;17.00;11.32;;;;;;;;;;5051907;28;20389;-72
2022/06/22 04:21:43;;;;;;;14.13;7.45;;;;;;;;;;5051610;28;20071;-72
2022/06/22 04:24:53;;;;;;;16.70;8.75;;;;;;;;;;5050663;28;20048;-71
2022/06/22 04:27:58;;;;;;;17.07;6.90;;;;;;;;;;5051565;28;20049;-72
2022/06/22 04:31:04;;;;;;;16.67;7.05;;;;;;;;;;5050835;28;20040;-72
2022/06/22 04:34:13;;;;;;;12.98;5.22;;;;;;;;;;5051519;28;20512;-72
2022/06/22 04:37:20;;;;;;;19.80;6.00;;;;;;;;;;5050731;28;20461;-72
2022/06/22 04:40:30;;;;;;;16.08;6.10;;;;;;;;;;5051755;28;20041;-72
2022/06/22 04:43:35;;;;;;;12.75;5.78;;;;;;;;;;5050623;28;20374;-72
2022/06/22 04:46:41;;;;;;;14.15;6.25;;;;;;;;;;5051455;28;20041;-72
2022/06/22 04:49:49;;;;;;;11.75;5.78;;;;;;;;;;5050928;28;20314;-74
2022/06/22 04:52:55;;;;;;;29.45;7.40;;;;;;;;;;5050723;28;20037;-74
2022/06/22 04:56:01;;;;;;;22.55;7.57;;;;;;;;;;5051070;28;20037;-74
2022/06/22 04:59:07;;;;;;;29.63;8.60;;;;;;;;;;5050996;28;20370;-74
2022/06/22 05:02:13;;;;;;;28.55;7.70;;;;;;;;;;5049933;28;20037;-74
2022/06/22 05:05:17;;;;;;;28.05;7.45;;;;;;;;;;5051075;28;20374;-74
2022/06/22 05:08:25;;;;;;;47.40;8.07;;;;;;;;;;5050947;28;20044;-74
2022/06/22 05:11:35;;;;;;;63.63;9.70;;;;;;;;;;5051026;28;20041;-74
2022/06/22 05:14:40;;;;;;;79.25;10.43;;;;;;;;;;5050628;28;20037;-74
2022/06/22 05:17:44;;;;;;;154.88;15.23;;;;;;;;;;5051093;28;20044;-74
2022/06/22 05:20:54;;;;;;;52.20;9.27;;;;;;;;;;5049986;28;20424;-74
2022/06/22 05:24:00;;;;;;;79.95;10.52;;;;;;;;;;5050871;28;20033;-72
2022/06/22 05:27:06;;;;;;;53.05;9.05;;;;;;;;;;5050378;28;20048;-74
2022/06/22 05:30:11;;;;;;;37.78;7.47;;;;;;;;;;5050731;28;20033;-73
2022/06/22 05:33:20;;;;;;;170.00;16.00;;;;;;;;;;5050625;28;20045;-74
2022/06/22 05:36:26;;;;;;;21.48;7.57;;;;;;;;;;5050197;28;20048;-73
2022/06/22 05:39:32;;;;;;;17.35;7.10;;;;;;;;;;5050580;28;20037;-73
2022/06/22 05:42:37;;;;;;;15.40;7.80;;;;;;;;;;5051292;28;20041;-73
2022/06/22 05:45:51;;;;;;;25.77;8.30;;;;;;;;;;5051465;28;20049;-74
2022/06/22 05:48:56;;;;;;;32.03;8.90;;;;;;;;;;5054739;28;20049;-73
2022/06/22 05:52:12;;;;;;;27.98;8.05;;;;;;;;;;5055023;28;20044;-65
2022/06/22 05:55:28;;;;;;;28.83;7.65;;;;;;;;;;5054539;28;20037;-65
2022/06/22 05:58:59;;;;;;;34.28;8.00;;;;;;;;;;5054373;28;20045;-64
2022/06/22 06:02:11;;;;;;;12.35;6.90;;;;;;;;;;5054028;28;20041;-65
2022/06/22 06:05:34;;;;;;;20.42;7.45;;;;;;;;;;5054313;28;20441;-64
2022/06/22 06:08:41;;;;;;;19.48;7.53;;;;;;;;;;5053620;28;20068;-65
2022/06/22 06:11:59;;;;;;;24.00;7.47;;;;;;;;;;5053295;28;20037;-64
2022/06/22 06:15:04;;;;;;;22.05;7.70;;;;;;;;;;5054381;28;20045;-65
2022/06/22 06:18:14;;;;;;;17.10;6.22;;;;;;;;;;5053616;28;20476;-65
2022/06/22 06:21:20;;;;;;;19.42;7.95;;;;;;;;;;5053954;28;20459;-64
2022/06/22 06:24:26;;;;;;;19.02;8.30;;;;;;;;;;5054232;28;20041;-64
2022/06/22 06:27:34;;;;;;;176.57;29.20;;;;;;;;;;5053815;28;20045;-64
2022/06/22 06:30:43;;;;;;;23.98;8.30;;;;;;;;;;5054017;28;20040;-65
2022/06/22 06:33:47;;;;;;;17.58;6.93;;;;;;;;;;5054175;28;20036;-63
2022/06/22 06:36:55;;;;;;;23.50;8.38;;;;;;;;;;5053627;28;20036;-62
2022/06/22 06:40:00;;;;;;;27.45;7.57;;;;;;;;;;5053746;28;20366;-62
2022/06/22 06:43:27;;;;;;;36.42;7.55;;;;;;;;;;5053133;28;20037;-64
2022/06/22 06:46:37;;;;;;;34.53;7.43;;;;;;;;;;5053428;28;20049;-65
2022/06/22 06:49:44;;;;;;;27.02;6.85;;;;;;;;;;5053570;28;20493;-65
2022/06/22 06:53:14;;;;;;;20.25;6.13;;;;;;;;;;5052453;28;20029;-65
2022/06/22 06:56:25;;;;;;;14.63;5.70;;;;;;;;;;5053442;28;20045;-64
2022/06/22 06:59:31;;;;;;;12.40;5.82;;;;;;;;;;5052662;28;20041;-63
2022/06/22 07:02:36;;;;;;;12.13;5.88;;;;;;;;;;5053157;28;20045;-64
2022/06/22 07:05:40;;;;;;;22.75;6.20;;;;;;;;;;5053024;28;20036;-64
2022/06/22 07:08:47;;;;;;;27.42;6.95;;;;;;;;;;5052859;28;20048;-71
2022/06/22 07:11:52;;;;;;;68.28;8.95;;;;;;;;;;5051926;28;20045;-70
2022/06/22 07:14:59;;;;;;;21.13;5.97;;;;;;;;;;5051722;28;20052;-70
2022/06/22 07:18:12;;;;;;;14.23;6.90;;;;;;;;;;5052828;28;20041;-70
2022/06/22 07:21:23;;;;;;;22.90;8.68;;;;;;;;;;5053048;28;20037;-70
2022/06/22 07:24:31;;;;;;;16.90;7.15;;;;;;;;;;5052868;28;20037;-70
2022/06/22 07:27:54;;;;;;;18.23;6.30;;;;;;;;;;5052548;28;20049;-70
2022/06/22 07:31:05;;;;;;;15.13;6.25;;;;;;;;;;5052758;28;20041;-71
2022/06/22 07:34:30;;;;;;;14.65;5.80;;;;;;;;;;5051858;28;20041;-70
2022/06/22 07:37:36;;;;;;;14.23;5.43;;;;;;;;;;5052519;28;20044;-70
2022/06/22 07:41:18;;;;;;;10.63;5.57;;;;;;;;;;5052643;28;20045;-71
2022/06/22 07:44:07;;;;;;;11.80;6.68;;;;;;;;;;5052699;28;20041;-71
2022/06/22 07:47:15;;;;;;;10.85;6.03;;;;;;;;;;5052416;28;20052;-70
2022/06/22 07:50:23;;;;;;;22.70;8.40;;;;;;;;;;5052245;28;20033;-74
2022/06/22 07:53:37;;;;;;;14.13;6.22;;;;;;;;;;5050190;28;20417;-69
2022/06/22 07:56:47;;;;;;;15.35;6.43;;;;;;;;;;5049411;28;20112;-70
2022/06/22 07:59:57;;;;;;;11.25;5.50;;;;;;;;;;5050104;28;20029;-69
2022/06/22 08:03:18;;;;;;;15.60;6.07;;;;;;;;;;5050049;28;20037;-68
2022/06/22 08:06:27;;;;;;;24.13;6.90;;;;;;;;;;5050187;28;20276;-69
2022/06/22 08:09:44;;;;;;;18.50;6.30;;;;;;;;;;5050924;28;20381;-69
2022/06/22 08:12:48;;;;;;;16.38;5.78;;;;;;;;;;5051976;28;20271;-69
2022/06/22 08:16:13;;;;;;;13.05;5.40;;;;;;;;;;5051866;28;20041;-69
2022/06/22 08:19:18;;;;;;;15.90;5.85;;;;;;;;;;5052021;28;20037;-69
2022/06/22 08:22:22;;;;;;;19.08;6.18;;;;;;;;;;5051717;28;20033;-69
2022/06/22 08:25:27;;;;;;;23.63;7.15;;;;;;;;;;5051630;28;20100;-69
2022/06/22 08:28:32;;;;;;;24.65;7.32;;;;;;;;;;5051180;28;20049;-69
2022/06/22 08:31:42;;;;;;;25.83;7.22;;;;;;;;;;5051460;28;20493;-68
2022/06/22 08:34:51;;;;;;;15.38;6.30;;;;;;;;;;5051504;28;20041;-69
2022/06/22 08:38:01;;;;;;;30.25;6.03;;;;;;;;;;5051477;28;20045;-69
2022/06/22 08:41:21;;;;;;;31.13;6.35;;;;;;;;;;5051585;28;20037;-69
2022/06/22 08:44:26;;;;;;;;;;;;;;;;;;5051863;28;20045;-69
2022/06/22 08:47:57;;;;;;;30.77;6.22;;;;;;;;;;5051093;28;19919;-69
2022/06/22 08:51:29;;;;;;;22.65;6.15;;;;;;;;;;5050692;28;20488;-69
2022/06/22 08:54:39;;;;;;;30.85;6.05;;;;;;;;;;5051119;28;20045;-68
2022/06/22 08:58:02;;;;;;;22.52;5.53;;;;;;;;;;5051060;28;20037;-68
2022/06/22 09:01:13;;;;;;;11.75;5.55;;;;;;;;;;5050986;28;20048;-69
2022/06/22 09:04:26;;;;;;;21.45;6.32;;;;;;;;;;5051063;28;20037;-69
2022/06/22 09:07:30;;;;;;;23.80;7.03;;;;;;;;;;5050670;28;20053;-68
2022/06/22 09:10:47;;;;;;;13.10;6.05;;;;;;;;;;5051146;28;20037;-69
2022/06/22 09:13:54;;;;;;;23.90;7.05;;;;;;;;;;5050760;28;20033;-69
2022/06/22 09:17:25;;;;;;;16.85;5.93;;;;;;;;;;5051248;28;20041;-68
2022/06/22 09:20:38;;;;;;;12.60;5.65;;;;;;;;;;5050708;28;20497;-69
2022/06/22 09:23:45;;;;;;;27.05;6.10;;;;;;;;;;5051043;28;20037;-69
2022/06/22 09:27:08;;;;;;;15.50;5.63;;;;;;;;;;5050381;28;20390;-70
2022/06/22 09:30:15;;;;;;;23.23;6.40;;;;;;;;;;5050922;28;20397;-70
2022/06/22 09:33:23;;;;;;;19.63;6.03;;;;;;;;;;5050911;28;20366;-69
2022/06/22 09:36:27;;;;;;;16.08;5.20;;;;;;;;;;5051057;28;20484;-70
2022/06/22 09:39:41;;;;;;;11.73;5.25;;;;;;;;;;5049854;28;20033;-69
2022/06/22 09:43:05;;;;;;;26.88;6.80;;;;;;;;;;5050536;28;20037;-69
2022/06/22 09:46:36;;;;;;;17.48;6.18;;;;;;;;;;5050541;28;20045;-70
2022/06/22 09:49:54;;;;;;;26.67;5.57;;;;;;;;;;5049543;28;20045;-69
2022/06/22 09:53:18;;;;;;;10.40;5.18;;;;;;;;;;5050060;28;20041;-69
2022/06/22 09:56:33;;;;;;;11.82;4.85;;;;;;;;;;5050543;28;20041;-70
2022/06/22 09:59:40;;;;;;;10.27;5.38;;;;;;;;;;5050629;28;20045;-70
2022/06/22 10:02:45;;;;;;;11.40;4.82;;;;;;;;;;5050552;28;20288;-71
2022/06/22 10:05:52;;;;;;;15.07;5.07;;;;;;;;;;5050495;28;20045;-70
2022/06/22 10:09:03;;;;;;;14.60;6.30;;;;;;;;;;5050148;28;20040;-71
2022/06/22 10:12:09;;;;;;;12.98;5.40;;;;;;;;;;5050360;28;20045;-70
2022/06/22 10:15:31;;;;;;;11.18;5.55;;;;;;;;;;5049608;28;20049;-72
2022/06/22 10:18:42;;;;;;;13.18;5.82;;;;;;;;;;5049892;28;20045;-72
2022/06/22 10:22:04;;;;;;;15.05;6.07;;;;;;;;;;5050448;28;20041;-70
2022/06/22 10:25:14;;;;;;;9.60;6.47;;;;;;;;;;5050105;28;20049;-70
2022/06/22 10:28:22;;;;;;;12.25;5.85;;;;;;;;;;5049353;28;20053;-73
2022/06/22 10:31:34;;;;;;;14.23;7.10;;;;;;;;;;5050587;28;20477;-72
2022/06/22 10:35:04;;;;;;;12.20;6.07;;;;;;;;;;5053300;28;20037;-71
2022/06/22 10:38:08;;;;;;;11.48;6.55;;;;;;;;;;5053596;28;20037;-71
2022/06/22 10:45:08;;;;;;;13.50;7.50;;;;;;;;;;5053441;28;20430;-71
2022/06/22 10:48:14;;;;;;;15.50;7.00;;;;;;;;;;5053245;28;20045;-71
2022/06/22 10:51:21;;;;;;;9.05;6.55;;;;;;;;;;5051331;28;20037;-69
2022/06/22 10:54:44;;;;;;;10.43;6.70;;;;;;;;;;5053248;28;20370;-75
2022/06/22 10:57:51;;;;;;;14.40;6.28;;;;;;;;;;5052208;28;20041;-72
2022/06/22 11:00:55;;;;;;;10.05;5.97;;;;;;;;;;5053147;28;20040;-71
2022/06/22 11:04:12;;;;;;;10.60;6.57;;;;;;;;;;5053045;28;20037;-74
2022/06/22 11:07:43;;;;;;;12.35;7.40;;;;;;;;;;5051657;28;20049;-70
2022/06/22 11:10:47;;;;;;;;;;;;;;;;;;5029472;28;20037;-72
2022/06/22 11:14:14;;;;;;;11.60;7.40;;;;;;;;;;5053164;28;19916;-73
2022/06/22 11:17:21;;;;;;;9.80;6.63;;;;;;;;;;5051957;28;20052;-73
2022/06/22 11:20:26;;;;;;;13.38;7.00;;;;;;;;;;5052340;28;20036;-71
2022/06/22 11:23:40;;;;;;;13.73;6.97;;;;;;;;;;5052771;28;20037;-72
2022/06/22 11:30:56;;;;;;;15.15;7.03;;;;;;;;;;5051781;28;20037;-71
2022/06/22 11:34:14;;;;;;;21.45;7.32;;;;;;;;;;5052096;28;20052;-70
2022/06/22 11:37:28;;;;;;;8.73;5.78;;;;;;;;;;5040649;28;20041;-71
2022/06/22 11:40:49;;;;;;;13.23;7.05;;;;;;;;;;5051935;28;20176;-72
2022/06/22 11:43:56;;;;;;;8.25;6.75;;;;;;;;;;5052569;28;20037;-71
2022/06/22 11:47:15;;;;;;;15.05;7.07;;;;;;;;;;5052639;28;20041;-72
2022/06/22 11:50:20;;;;;;;8.47;6.90;;;;;;;;;;5052676;28;20044;-71
2022/06/22 11:53:24;;;;;;;9.00;6.70;;;;;;;;;;5052577;28;20037;-72
2022/06/22 11:56:47;;;;;;;16.80;7.55;;;;;;;;;;5052389;28;20381;-72
2022/06/22 11:59:51;;;;;;;9.38;6.47;;;;;;;;;;5052279;28;20036;-72
2022/06/22 12:03:05;;;;;;;10.25;6.65;;;;;;;;;;5052037;28;20037;-72
2022/06/22 12:06:12;;;;;;;10.88;6.60;;;;;;;;;;5052516;28;20045;-72
2022/06/22 12:09:31;;;;;;;8.98;6.60;;;;;;;;;;5051895;28;20044;-72
2022/06/22 12:12:51;;;;;;;9.23;6.67;;;;;;;;;;5052143;28;20033;-71
2022/06/22 12:16:28;;;;;;;6.95;5.70;;;;;;;;;;5052004;28;20037;-71
2022/06/22 12:20:02;;;;;;;10.18;5.60;;;;;;;;;;5038948;28;20037;-71
2022/06/22 12:23:06;;;;;;;10.60;5.85;;;;;;;;;;5051200;28;20041;-71
2022/06/22 12:26:12;;;;;;;8.73;5.82;;;;;;;;;;5051768;28;20049;-72
2022/06/22 12:29:26;;;;;;;9.40;5.72;;;;;;;;;;5051106;28;20045;-71
2022/06/22 12:32:34;;;;;;;14.88;7.78;;;;;;;;;;5051821;28;20037;-71
2022/06/22 12:35:42;;;;;;;12.52;6.95;;;;;;;;;;5050979;28;20044;-71
2022/06/22 12:38:59;;;;;;;12.38;6.38;;;;;;;;;;5051231;28;20040;-71
2022/06/22 12:42:02;;;;;;;8.57;6.40;;;;;;;;;;5051320;28;20037;-71
2022/06/22 12:45:16;;;;;;;9.82;6.80;;;;;;;;;;5051332;28;20029;-71
2022/06/22 12:48:26;;;;;;;11.88;5.95;;;;;;;;;;5050663;28;20045;-72
2022/06/22 12:52:01;;;;;;;6.15;5.53;;;;;;;;;;5050893;28;20481;-71
2022/06/22 12:55:09;;;;;;;10.02;6.28;;;;;;;;;;5050848;28;20045;-71
2022/06/22 12:58:17;;;;;;;9.55;6.97;;;;;;;;;;5051028;28;20037;-72
2022/06/22 13:01:22;;;;;;;15.68;7.38;;;;;;;;;;5051233;28;20033;-72
2022/06/22 13:04:28;;;;;;;17.38;6.95;;;;;;;;;;5051104;28;20516;-72
2022/06/22 13:07:37;;;;;;;12.75;6.45;;;;;;;;;;5050058;28;20041;-71
2022/06/22 13:10:43;;;;;;;6.55;5.65;;;;;;;;;;5050943;28;20037;-72
2022/06/22 13:13:56;;;;;;;9.20;5.90;;;;;;;;;;5051223;28;20029;-71
2022/06/22 13:17:01;;;;;;;7.25;5.43;;;;;;;;;;5050065;28;20041;-71
2022/06/22 13:20:08;;;;;;;8.23;5.55;;;;;;;;;;5051112;28;20040;-72
2022/06/22 13:23:27;;;;;;;8.95;5.90;;;;;;;;;;5050970;28;20041;-72
2022/06/22 13:26:31;;;;;;;9.27;5.63;;;;;;;;;;5049840;28;20052;-71
2022/06/22 13:29:43;;;;;;;10.10;5.85;;;;;;;;;;5049974;28;20044;-72
2022/06/22 13:33:00;;;;;;;12.73;5.90;;;;;;;;;;5050592;28;20033;-71
2022/06/22 13:36:07;;;;;;;8.18;5.43;;;;;;;;;;5050758;28;20041;-72
2022/06/22 13:39:28;;;;;;;7.60;6.10;;;;;;;;;;5050116;28;20113;-73
2022/06/22 13:42:50;;;;;;;9.13;5.65;;;;;;;;;;5051162;28;20045;-71
2022/06/22 13:46:14;;;;;;;8.05;4.97;;;;;;;;;;5050774;28;20041;-72
2022/06/22 13:49:35;;;;;;;12.35;5.72;;;;;;;;;;5050390;28;20053;-72
2022/06/22 13:52:44;;;;;;;8.60;5.38;;;;;;;;;;5050460;28;20033;-72
2022/06/22 13:55:48;;;;;;;11.50;5.40;;;;;;;;;;5050753;28;20037;-72
2022/06/22 13:58:55;;;;;;;5.47;4.75;;;;;;;;;;5050691;28;20037;-72
2022/06/22 14:02:08;;;;;;;6.07;4.45;;;;;;;;;;5050630;28;20040;-72
2022/06/22 14:05:15;;;;;;;5.93;4.72;;;;;;;;;;5050645;28;20045;-71
2022/06/22 14:08:38;;;;;;;11.88;4.97;;;;;;;;;;5051272;28;20485;-71
2022/06/22 14:11:47;;;;;;;6.50;4.97;;;;;;;;;;5054591;28;20033;-71
2022/06/22 14:15:10;;;;;;;10.70;4.80;;;;;;;;;;5054224;28;20402;-71
2022/06/22 14:18:20;;;;;;;72.35;7.90;;;;;;;;;;5053660;28;20037;-71
2022/06/22 14:21:24;;;;;;;12.52;5.57;;;;;;;;;;5053959;28;20037;-71
2022/06/22 14:24:34;;;;;;;6.85;4.60;;;;;;;;;;5053403;28;20036;-71
2022/06/22 14:28:02;;;;;;;7.35;4.65;;;;;;;;;;5053877;28;20037;-72
2022/06/22 14:31:06;;;;;;;8.77;5.07;;;;;;;;;;5053346;28;20057;-71
2022/06/22 14:34:33;;;;;;;6.13;4.45;;;;;;;;;;5053996;28;20045;-72
2022/06/22 14:37:44;;;;;;;6.20;4.88;;;;;;;;;;5053828;28;20172;-71
2022/06/22 14:41:24;;;;;;;9.02;4.47;;;;;;;;;;5053940;28;20029;-71
2022/06/22 14:44:40;;;;;;;8.55;5.70;;;;;;;;;;5051342;28;20037;-71
2022/06/22 14:47:56;;;;;;;9.05;5.20;;;;;;;;;;5053435;28;20045;-71
2022/06/22 14:51:07;;;;;;;6.75;4.88;;;;;;;;;;5053378;28;20041;-71
2022/06/22 14:54:39;;;;;;;9.25;6.25;;;;;;;;;;5051464;28;20469;-72
2022/06/22 14:57:53;;;;;;;10.27;5.40;;;;;;;;;;5051367;28;20041;-72
2022/06/22 15:01:00;;;;;;;16.08;6.72;;;;;;;;;;5040548;28;20483;-70
2022/06/22 15:04:23;;;;;;;8.23;5.95;;;;;;;;;;5052791;28;20045;-70
2022/06/22 15:07:34;;;;;;;7.20;5.35;;;;;;;;;;5051734;28;20045;-71
2022/06/22 15:10:49;;;;;;;13.88;5.55;;;;;;;;;;5052848;28;20535;-70
2022/06/22 15:13:55;;;;;;;10.63;4.85;;;;;;;;;;5052305;28;20045;-71
2022/06/22 15:17:02;;;;;;;8.02;5.13;;;;;;;;;;5052263;28;20037;-71
2022/06/22 15:20:27;;;;;;;10.40;4.93;;;;;;;;;;5052203;28;20374;-71
2022/06/22 15:23:37;;;;;;;8.38;5.22;;;;;;;;;;5057529;28;20045;-73
2022/06/22 15:26:47;;;;;;;13.63;5.90;;;;;;;;;;5052542;28;20045;-70
2022/06/22 15:30:14;;;;;;;12.60;4.65;;;;;;;;;;5052739;28;20041;-70
2022/06/22 15:33:22;;;;;;;5.70;4.30;;;;;;;;;;5050574;28;20045;-71
2022/06/22 15:36:30;;;;;;;7.85;4.45;;;;;;;;;;5050641;28;20263;-69
2022/06/22 15:39:37;;;;;;;6.00;4.22;;;;;;;;;;5051225;28;20033;-70
2022/06/22 15:42:49;;;;;;;7.60;3.97;;;;;;;;;;5050921;28;20033;-70
2022/06/22 15:45:53;;;;;;;10.15;3.72;;;;;;;;;;5051930;28;20037;-70
2022/06/22 15:49:16;;;;;;;8.80;3.97;;;;;;;;;;5052157;28;20052;-71
2022/06/22 15:52:32;;;;;;;7.88;4.25;;;;;;;;;;5052104;28;20037;-69
2022/06/22 15:55:47;;;;;;;10.13;4.28;;;;;;;;;;5052069;28;20049;-69
2022/06/22 15:58:57;;;;;;;11.43;4.70;;;;;;;;;;5052194;28;20048;-70
2022/06/22 16:02:20;;;;;;;10.50;3.45;;;;;;;;;;5052096;28;20041;-70
2022/06/22 16:05:24;;;;;;;6.53;4.18;;;;;;;;;;5052062;28;20041;-71
2022/06/22 16:08:36;;;;;;;7.25;3.72;;;;;;;;;;5051503;28;20044;-71
2022/06/22 16:15:24;;;;;;;7.90;3.28;;;;;;;;;;5052164;28;20049;-68
2022/06/22 16:18:34;;;;;;;6.88;4.10;;;;;;;;;;5051549;28;20045;-69
2022/06/22 16:21:57;;;;;;;17.33;4.00;;;;;;;;;;5051670;28;20509;-70
2022/06/22 16:25:08;;;;;;;6.30;3.70;;;;;;;;;;5051405;28;20049;-69
2022/06/22 16:28:15;;;;;;;6.68;3.47;;;;;;;;;;5051075;28;20053;-69
2022/06/22 16:31:25;;;;;;;10.68;3.97;;;;;;;;;;5050546;28;20033;-67
2022/06/22 16:34:48;;;;;;;8.70;3.83;;;;;;;;;;5049562;28;20050;-68
2022/06/22 16:37:59;;;;;;;19.27;4.45;;;;;;;;;;5050434;28;20048;-69
2022/06/22 16:41:03;;;;;;;;;;;;;;;;;;5051130;28;20484;-67
2022/06/22 16:44:11;;;;;;;4.55;3.17;;;;;;;;;;5050969;28;19916;-67
2022/06/22 16:47:15;;;;;;;7.97;3.53;;;;;;;;;;5051171;28;20036;-68
2022/06/22 16:50:26;;;;;;;10.10;4.18;;;;;;;;;;5051646;28;20049;-68
2022/06/22 16:53:36;;;;;;;6.28;3.70;;;;;;;;;;5051188;28;20369;-68
2022/06/22 16:56:41;;;;;;;12.82;3.67;;;;;;;;;;5050997;28;20045;-68
2022/06/22 16:59:46;;;;;;;10.23;3.95;;;;;;;;;;5050803;28;20433;-68
2022/06/22 17:02:57;;;;;;;8.52;4.18;;;;;;;;;;5050963;28;20033;-68
2022/06/22 17:06:11;;;;;;;7.35;4.10;;;;;;;;;;5050827;28;20040;-68
2022/06/22 17:09:30;;;;;;;4.75;3.67;;;;;;;;;;5050586;28;20052;-68
2022/06/22 17:12:36;;;;;;;10.57;3.95;;;;;;;;;;5050725;28;20398;-68
2022/06/22 17:15:53;;;;;;;10.30;4.18;;;;;;;;;;5050882;28;20032;-68
2022/06/22 17:18:58;;;;;;;14.88;4.22;;;;;;;;;;5050641;28;20044;-69
2022/06/22 17:22:02;;;;;;;12.63;4.53;;;;;;;;;;5050831;28;20033;-69
2022/06/22 17:25:06;;;;;;;9.52;3.90;;;;;;;;;;5050825;28;20070;-68
2022/06/22 17:28:14;;;;;;;9.35;3.88;;;;;;;;;;5050156;28;20053;-68
2022/06/22 17:31:18;;;;;;;12.80;3.38;;;;;;;;;;5049139;28;20053;-69
2022/06/22 17:34:32;;;;;;;8.68;5.53;;;;;;;;;;5050346;28;20064;-69
2022/06/22 17:37:51;;;;;;;14.48;5.00;;;;;;;;;;5050390;28;20040;-69
2022/06/22 17:41:14;;;;;;;12.98;4.25;;;;;;;;;;5049685;28;20041;-69
2022/06/22 17:44:21;;;;;;;10.77;4.03;;;;;;;;;;5054714;28;20037;-69
2022/06/22 17:47:28;;;;;;;10.65;3.88;;;;;;;;;;5054343;28;20040;-69
2022/06/22 17:50:32;;;;;;;14.23;4.78;;;;;;;;;;5054058;28;20508;-69
2022/06/22 17:53:38;;;;;;;18.63;4.82;;;;;;;;;;5054248;28;20041;-68
2022/06/22 17:56:44;;;;;;;12.18;4.22;;;;;;;;;;5054243;28;20040;-69
2022/06/22 17:59:58;;;;;;;10.70;4.63;;;;;;;;;;5053942;28;20501;-70
2022/06/22 18:03:08;;;;;;;10.88;4.30;;;;;;;;;;5053624;28;20045;-69
2022/06/22 18:06:13;;;;;;;17.48;4.78;;;;;;;;;;5053830;28;20041;-69
2022/06/22 18:09:25;;;;;;;16.60;3.92;;;;;;;;;;5053357;28;20283;-69
2022/06/22 18:12:30;;;;;;;12.35;5.22;;;;;;;;;;5053636;28;20037;-69
2022/06/22 18:15:38;;;;;;;29.92;4.65;;;;;;;;;;5053919;28;20422;-70
2022/06/22 18:18:45;;;;;;;107.60;8.77;;;;;;;;;;5053621;28;20036;-69
2022/06/22 18:21:57;;;;;;;51.05;6.50;;;;;;;;;;5053885;28;20377;-70
2022/06/22 18:25:19;;;;;;;22.80;4.88;;;;;;;;;;5052170;28;20374;-70
2022/06/22 18:28:26;;;;;;;31.67;5.50;;;;;;;;;;5053087;28;20466;-69
2022/06/22 18:31:50;;;;;;;15.98;4.57;;;;;;;;;;5053399;28;20033;-69
2022/06/22 18:34:54;;;;;;;28.48;5.15;;;;;;;;;;5053396;28;20033;-70
2022/06/22 18:38:06;;;;;;;28.90;6.53;;;;;;;;;;5052365;28;20033;-69
2022/06/22 18:44:40;;;;;;;41.17;8.05;;;;;;;;;;5053492;28;20362;-69
2022/06/22 18:47:52;;;;;;;30.00;5.80;;;;;;;;;;5052994;28;20037;-69
2022/06/22 18:51:10;;;;;;;31.02;6.13;;;;;;;;;;5053014;28;20041;-70
2022/06/22 18:54:20;;;;;;;21.38;5.70;;;;;;;;;;5052399;28;20032;-70
2022/06/22 18:57:41;;;;;;;35.35;6.97;;;;;;;;;;5040672;28;20378;-70
2022/06/22 19:00:54;;;;;;;27.80;7.88;;;;;;;;;;5053176;28;20041;-70
2022/06/22 19:04:00;;;;;;;21.50;6.95;;;;;;;;;;5052749;28;20025;-70
2022/06/22 19:07:05;;;;;;;24.10;7.47;;;;;;;;;;5053190;28;20493;-70
2022/06/22 19:10:10;;;;;;;20.88;8.65;;;;;;;;;;5051944;28;20117;-69
2022/06/22 19:13:14;;;;;;;27.73;10.48;;;;;;;;;;5052604;28;20033;-70